createdAt,value
2023-04-25T00:00:17.882Z,12.73
2023-04-25T00:02:47.546Z,12.71
2023-04-25T00:05:17.367Z,12.73
2023-04-25T00:07:47.013Z,12.73
2023-04-25T00:10:14.947Z,12.74
2023-04-25T00:12:42.911Z,12.76
2023-04-25T00:15:11.680Z,12.76
2023-04-25T00:17:39.974Z,12.77
2023-04-25T00:20:10.322Z,12.75
2023-04-25T00:22:39.248Z,12.72
2023-04-25T00:25:09.446Z,12.69
2023-04-25T00:27:37.819Z,12.66
2023-04-25T00:30:06.820Z,12.60
2023-04-25T00:32:34.725Z,12.56
2023-04-25T00:35:02.660Z,12.55
2023-04-25T00:37:30.570Z,12.55
2023-04-25T00:39:59.940Z,12.57
2023-04-25T00:42:29.216Z,12.57
2023-04-25T00:44:57.147Z,12.60
2023-04-25T00:47:25.059Z,12.63
2023-04-25T00:49:54.320Z,12.65
2023-04-25T00:52:22.226Z,12.65
2023-04-25T00:54:50.147Z,12.66
2023-04-25T00:57:18.170Z,12.65
2023-04-25T00:59:47.649Z,12.63
2023-04-25T01:02:15.710Z,12.58
2023-04-25T01:04:43.672Z,12.55
2023-04-25T01:07:11.729Z,12.35
2023-04-25T01:09:39.653Z,12.44
2023-04-25T01:12:07.802Z,12.43
2023-04-25T01:14:36.114Z,12.40
2023-04-25T01:17:05.448Z,12.39
2023-04-25T01:19:33.349Z,12.38
2023-04-25T01:22:02.644Z,12.37
2023-04-25T01:24:30.554Z,12.38
2023-04-25T01:26:58.464Z,12.38
2023-04-25T01:29:26.340Z,12.40
2023-04-25T01:31:54.344Z,12.41
2023-04-25T01:34:22.467Z,12.42
2023-04-25T01:36:51.020Z,12.44
2023-04-25T01:39:20.255Z,12.43
2023-04-25T01:41:48.365Z,12.43
2023-04-25T01:44:16.375Z,12.43
2023-04-25T01:46:44.287Z,12.42
2023-04-25T01:49:12.119Z,12.44
2023-04-25T01:51:40.032Z,12.43
2023-04-25T01:54:08.421Z,12.42
2023-04-25T01:56:39.507Z,12.41
2023-04-25T01:59:07.592Z,12.41
2023-04-25T02:01:35.556Z,12.41
2023-04-25T02:04:03.691Z,12.40
2023-04-25T02:06:31.910Z,12.41
2023-04-25T02:08:59.783Z,12.40
2023-04-25T02:11:27.744Z,12.39
2023-04-25T02:13:57.014Z,12.38
2023-04-25T02:16:24.993Z,12.35
2023-04-25T02:18:53.835Z,12.34
2023-04-25T02:21:21.752Z,12.29
2023-04-25T02:23:50.710Z,12.29
2023-04-25T02:26:18.770Z,12.26
2023-04-25T02:28:46.680Z,12.26
2023-04-25T02:31:16.049Z,12.23
2023-04-25T02:33:44.010Z,12.21
2023-04-25T02:36:11.928Z,12.22
2023-04-25T02:38:40.239Z,12.21
2023-04-25T02:41:08.214Z,12.24
2023-04-25T02:43:36.129Z,12.26
2023-04-25T02:46:04.020Z,12.30
2023-04-25T02:48:33.271Z,12.32
2023-04-25T02:51:01.193Z,12.34
2023-04-25T02:53:29.044Z,12.36
2023-04-25T02:55:59.320Z,12.36
2023-04-25T02:58:27.328Z,12.36
2023-04-25T03:00:55.692Z,12.37
2023-04-25T03:03:23.751Z,12.36
2023-04-25T03:05:53.301Z,12.37
2023-04-25T03:08:21.208Z,12.37
2023-04-25T03:10:49.336Z,12.32
2023-04-25T03:13:17.290Z,12.31
2023-04-25T03:15:45.485Z,12.27
2023-04-25T03:18:13.361Z,12.24
2023-04-25T03:20:42.731Z,12.20
2023-04-25T03:23:11.971Z,12.12
2023-04-25T03:25:39.881Z,12.06
2023-04-25T03:28:07.759Z,12.00
2023-04-25T03:30:35.630Z,11.93
2023-04-25T03:33:03.734Z,11.87
2023-04-25T03:35:31.664Z,11.81
2023-04-25T03:37:59.536Z,11.76
2023-04-25T03:40:28.821Z,11.70
2023-04-25T03:42:56.695Z,11.63
2023-04-25T03:45:24.584Z,11.56
2023-04-25T03:47:52.497Z,11.48
2023-04-25T03:50:20.576Z,11.43
2023-04-25T03:52:48.505Z,11.37
2023-04-25T03:55:16.452Z,11.31
2023-04-25T03:57:45.730Z,11.30
2023-04-25T04:00:15.178Z,11.28
2023-04-25T04:02:45.329Z,11.27
2023-04-25T04:05:13.922Z,11.28
2023-04-25T04:07:43.650Z,11.27
2023-04-25T04:10:11.966Z,11.26
2023-04-25T04:12:39.918Z,11.27
2023-04-25T04:15:10.153Z,11.31
2023-04-25T04:17:38.104Z,11.34
2023-04-25T04:20:08.774Z,11.39
2023-04-25T04:22:37.414Z,11.43
2023-04-25T04:25:06.853Z,11.44
2023-04-25T04:27:35.427Z,11.48
2023-04-25T04:30:04.338Z,11.48
2023-04-25T04:32:35.684Z,11.47
2023-04-25T04:35:04.620Z,11.47
2023-04-25T04:37:32.493Z,11.46
2023-04-25T04:40:00.381Z,11.46
2023-04-25T04:42:29.206Z,11.46
2023-04-25T04:44:57.107Z,11.43
2023-04-25T04:47:25.016Z,11.41
2023-04-25T04:49:54.324Z,11.40
2023-04-25T04:52:22.182Z,11.38
2023-04-25T04:54:50.060Z,11.37
2023-04-25T04:57:18.965Z,11.37
2023-04-25T04:59:47.049Z,11.35
2023-04-25T05:02:15.004Z,11.32
2023-04-25T05:04:42.986Z,11.31
2023-04-25T05:07:12.260Z,11.28
2023-04-25T05:09:40.137Z,11.26
2023-04-25T05:12:08.270Z,11.22
2023-04-25T05:14:36.163Z,11.19
2023-04-25T05:17:05.770Z,11.16
2023-04-25T05:19:34.308Z,11.10
2023-04-25T05:22:02.184Z,11.08
2023-04-25T05:24:31.550Z,11.04
2023-04-25T05:26:59.570Z,11.02
2023-04-25T05:29:27.414Z,10.99
2023-04-25T05:31:55.335Z,10.95
2023-04-25T05:34:23.217Z,10.92
2023-04-25T05:36:51.268Z,10.91
2023-04-25T05:39:19.162Z,10.88
2023-04-25T05:41:48.458Z,10.88
2023-04-25T05:44:16.964Z,10.88
2023-04-25T05:46:44.919Z,10.87
2023-04-25T05:49:12.889Z,10.86
2023-04-25T05:51:40.752Z,11.02
2023-04-25T05:54:08.745Z,11.19
2023-04-25T05:56:36.649Z,11.32
2023-04-25T05:59:06.027Z,11.43
2023-04-25T06:01:33.978Z,11.47
2023-04-25T06:04:03.003Z,11.51
2023-04-25T06:06:31.252Z,11.52
2023-04-25T06:08:59.187Z,11.61
2023-04-25T06:11:27.063Z,11.69
2023-04-25T06:13:55.288Z,11.70
2023-04-25T06:16:26.957Z,11.74
2023-04-25T06:18:55.109Z,11.76
2023-04-25T06:21:23.109Z,11.78
2023-04-25T06:23:51.334Z,11.78
2023-04-25T06:26:20.408Z,11.76
2023-04-25T06:28:48.353Z,11.77
2023-04-25T06:31:16.326Z,11.80
2023-04-25T06:33:45.621Z,11.82
2023-04-25T06:36:13.468Z,11.89
2023-04-25T06:38:41.508Z,11.93
2023-04-25T06:41:09.514Z,11.99
2023-04-25T06:43:37.436Z,12.06
2023-04-25T06:46:05.361Z,12.12
2023-04-25T06:48:33.297Z,12.17
2023-04-25T06:51:02.586Z,12.24
2023-04-25T06:53:30.476Z,12.30
2023-04-25T06:55:58.375Z,12.36
2023-04-25T06:58:27.157Z,12.42
2023-04-25T07:00:55.046Z,12.49
2023-04-25T07:03:23.255Z,12.55
2023-04-25T07:05:51.228Z,12.63
2023-04-25T07:08:20.830Z,12.72
2023-04-25T07:10:50.131Z,12.78
2023-04-25T07:13:18.117Z,12.80
2023-04-25T07:15:46.062Z,12.86
2023-04-25T07:18:13.959Z,12.90
2023-04-25T07:20:41.882Z,12.92
2023-04-25T07:23:09.740Z,12.99
2023-04-25T07:25:39.359Z,13.03
2023-04-25T07:28:07.285Z,13.03
2023-04-25T07:30:35.900Z,13.11
2023-04-25T07:33:04.005Z,13.19
2023-04-25T07:35:32.043Z,13.24
2023-04-25T07:38:00.009Z,13.30
2023-04-25T07:40:28.195Z,13.31
2023-04-25T07:42:57.509Z,13.39
2023-04-25T07:45:25.714Z,13.45
2023-04-25T07:47:53.751Z,13.48
2023-04-25T07:50:21.871Z,13.53
2023-04-25T07:52:49.880Z,13.57
2023-04-25T07:55:18.011Z,13.59
2023-04-25T07:57:45.884Z,13.60
2023-04-25T08:00:16.418Z,13.59
2023-04-25T08:02:44.373Z,13.63
2023-04-25T08:05:15.343Z,13.72
2023-04-25T08:07:44.600Z,13.80
2023-04-25T08:10:12.584Z,13.85
2023-04-25T08:12:40.692Z,13.90
2023-04-25T08:15:09.910Z,13.94
2023-04-25T08:17:39.214Z,13.99
2023-04-25T08:20:08.329Z,13.99
2023-04-25T08:22:36.558Z,14.01
2023-04-25T08:25:04.741Z,14.04
2023-04-25T08:27:32.614Z,14.07
2023-04-25T08:30:00.577Z,14.12
2023-04-25T08:32:29.683Z,14.11
2023-04-25T08:35:00.084Z,14.09
2023-04-25T08:37:27.996Z,14.10
2023-04-25T08:39:57.180Z,14.09
2023-04-25T08:42:25.530Z,14.10
2023-04-25T08:44:53.884Z,14.14
2023-04-25T08:47:21.990Z,14.20
2023-04-25T08:49:50.593Z,14.22
2023-04-25T08:52:19.923Z,14.29
2023-04-25T08:54:47.917Z,14.32
2023-04-25T08:57:16.493Z,14.37
2023-04-25T08:59:46.751Z,14.41
2023-04-25T09:02:17.715Z,14.43
2023-04-25T09:04:45.957Z,14.47
2023-04-25T09:07:16.711Z,14.54
2023-04-25T09:09:46.084Z,14.61
2023-04-25T09:12:13.948Z,14.65
2023-04-25T09:14:43.424Z,14.65
2023-04-25T09:17:11.417Z,14.68
2023-04-25T09:19:42.071Z,14.72
2023-04-25T09:22:10.639Z,14.78
2023-04-25T09:24:39.419Z,14.86
2023-04-25T09:27:09.247Z,14.90
2023-04-25T09:29:38.635Z,14.89
2023-04-25T09:32:14.028Z,14.88
2023-04-25T09:34:43.068Z,14.94
2023-04-25T09:37:11.675Z,14.96
2023-04-25T09:39:40.706Z,15.01
2023-04-25T09:42:09.952Z,15.05
2023-04-25T09:44:38.124Z,15.10
2023-04-25T09:47:06.155Z,15.14
2023-04-25T09:49:34.081Z,15.17
2023-04-25T09:52:02.138Z,15.20
2023-04-25T09:54:29.980Z,15.26
2023-04-25T09:56:57.949Z,15.31
2023-04-25T09:59:27.204Z,15.35
2023-04-25T10:01:55.202Z,15.45
2023-04-25T10:04:25.684Z,15.51
2023-04-25T10:06:54.490Z,15.61
2023-04-25T10:09:22.495Z,15.71
2023-04-25T10:11:50.480Z,15.82
2023-04-25T10:14:18.603Z,15.93
2023-04-25T10:16:47.883Z,15.91
2023-04-25T10:19:16.362Z,16.09
2023-04-25T10:21:48.908Z,16.15
2023-04-25T10:24:16.994Z,16.18
2023-04-25T10:26:44.958Z,16.27
2023-04-25T10:29:12.835Z,16.38
2023-04-25T10:31:48.478Z,16.50
2023-04-25T10:34:16.432Z,16.59
2023-04-25T10:36:44.312Z,16.67
2023-04-25T10:39:12.219Z,16.77
2023-04-25T10:41:48.450Z,16.89
2023-04-25T10:44:16.559Z,16.99
2023-04-25T10:46:44.458Z,16.98
2023-04-25T10:49:15.024Z,16.97
2023-04-25T10:54:20.078Z,17.17
2023-04-25T10:56:47.972Z,17.28
2023-04-25T10:59:16.775Z,17.35
2023-04-25T11:01:46.014Z,17.41
2023-04-25T11:04:25.825Z,17.58
2023-04-25T11:07:11.684Z,17.70
2023-04-25T11:09:41.125Z,17.81
2023-04-25T11:12:10.102Z,17.90
2023-04-25T11:14:38.398Z,18.11
2023-04-25T11:17:06.835Z,18.37
2023-04-25T11:19:36.165Z,18.60
2023-04-25T11:22:04.352Z,18.35
2023-04-25T11:24:32.786Z,18.11
2023-04-25T11:27:00.898Z,18.18
2023-04-25T11:29:28.846Z,18.34
2023-04-25T11:31:57.884Z,18.50
2023-04-25T11:34:26.059Z,18.64
2023-04-25T11:36:55.339Z,19.00
2023-04-25T11:39:23.404Z,19.49
2023-04-25T11:41:51.483Z,19.93
2023-04-25T11:44:19.448Z,20.14
2023-04-25T11:46:47.439Z,20.35
2023-04-25T11:49:15.579Z,20.67
2023-04-25T11:51:44.334Z,20.94
2023-04-25T11:54:13.974Z,21.21
2023-04-25T11:56:43.421Z,21.54
2023-04-25T11:59:14.003Z,21.87
2023-04-25T12:01:43.991Z,22.18
2023-04-25T12:04:15.238Z,22.54
2023-04-25T12:06:43.884Z,22.69
2023-04-25T12:09:16.788Z,22.89
2023-04-25T12:11:44.916Z,23.08
2023-04-25T12:14:12.834Z,23.34
2023-04-25T12:16:44.667Z,23.54
2023-04-25T12:19:15.385Z,23.70
2023-04-25T12:21:57.249Z,23.88
2023-04-25T12:24:29.070Z,23.96
2023-04-25T12:27:01.128Z,24.12
2023-04-25T12:29:34.823Z,24.33
2023-04-25T12:32:06.982Z,24.50
2023-04-25T12:34:36.933Z,24.25
2023-04-25T12:37:04.979Z,23.80
2023-04-25T12:39:34.252Z,23.60
2023-04-25T12:42:02.172Z,23.11
2023-04-25T12:44:30.158Z,22.98
2023-04-25T12:46:58.119Z,22.94
2023-04-25T12:49:26.544Z,23.17
2023-04-25T12:51:54.475Z,23.53
2023-04-25T12:54:22.326Z,23.52
2023-04-25T12:56:52.113Z,23.31
2023-04-25T12:59:21.207Z,23.33
2023-04-25T13:01:49.360Z,23.80
2023-04-25T13:04:17.653Z,24.04
2023-04-25T13:06:45.807Z,23.81
2023-04-25T13:09:14.250Z,23.60
2023-04-25T13:11:42.634Z,23.37
2023-04-25T13:14:11.942Z,23.10
2023-04-25T13:16:39.967Z,22.76
2023-04-25T13:19:09.255Z,22.45
2023-04-25T13:21:37.141Z,22.16
2023-04-25T13:24:05.653Z,21.92
2023-04-25T13:26:33.666Z,21.74
2023-04-25T13:29:03.993Z,21.53
2023-04-25T13:31:33.374Z,21.37
2023-04-25T13:34:01.300Z,21.28
2023-04-25T13:36:29.224Z,21.16
2023-04-25T13:38:57.098Z,21.35
2023-04-25T13:41:25.044Z,21.44
2023-04-25T13:43:53.617Z,21.45
2023-04-25T13:46:40.808Z,21.38
2023-04-25T13:49:13.146Z,21.14
2023-04-25T13:51:41.581Z,20.90
2023-04-25T13:54:09.735Z,20.75
2023-04-25T13:56:37.761Z,20.68
2023-04-25T13:59:05.735Z,20.66
2023-04-25T14:01:35.447Z,20.62
2023-04-25T14:04:04.824Z,20.77
2023-04-25T14:06:34.863Z,21.09
2023-04-25T14:09:03.488Z,21.32
2023-04-25T14:11:31.525Z,21.44
2023-04-25T14:14:00.834Z,21.37
2023-04-25T14:16:28.940Z,21.31
2023-04-25T14:18:57.211Z,21.20
2023-04-25T14:21:25.190Z,21.74
2023-04-25T14:23:54.790Z,21.92
2023-04-25T14:26:22.984Z,22.11
2023-04-25T14:28:51.130Z,22.08
2023-04-25T14:31:19.111Z,21.93
2023-04-25T14:33:47.129Z,22.37
2023-04-25T14:36:15.387Z,23.35
2023-04-25T14:38:43.277Z,24.34
2023-04-25T14:41:13.039Z,24.75
2023-04-25T14:43:42.328Z,24.60
2023-04-25T14:46:10.498Z,24.34
2023-04-25T14:48:38.629Z,24.08
2023-04-25T14:51:07.012Z,23.65
2023-04-25T14:53:34.967Z,23.07
2023-04-25T14:56:02.887Z,22.84
2023-04-25T14:58:33.089Z,22.77
2023-04-25T15:01:01.017Z,22.94
2023-04-25T15:03:29.000Z,23.03
2023-04-25T15:05:57.279Z,23.15
2023-04-25T15:08:25.175Z,23.25
2023-04-25T15:10:53.152Z,23.30
2023-04-25T15:13:21.323Z,23.22
2023-04-25T15:15:52.444Z,23.19
2023-04-25T15:18:22.857Z,23.18
2023-04-25T15:20:50.951Z,23.27
2023-04-25T15:23:19.066Z,23.43
2023-04-25T15:25:47.055Z,23.69
2023-04-25T15:28:16.845Z,23.97
2023-04-25T15:30:44.763Z,24.30
2023-04-25T15:33:14.404Z,24.27
2023-04-25T15:35:42.321Z,24.03
2023-04-25T15:38:11.305Z,23.69
2023-04-25T15:40:39.296Z,23.38
2023-04-25T15:43:07.345Z,23.16
2023-04-25T15:45:37.676Z,23.25
2023-04-25T15:48:06.254Z,23.75
2023-04-25T15:50:36.444Z,24.38
2023-04-25T15:53:05.842Z,24.71
2023-04-25T15:55:35.396Z,25.15
2023-04-25T15:58:03.253Z,25.41
2023-04-25T16:00:31.390Z,25.42
2023-04-25T16:02:59.424Z,25.32
2023-04-25T16:05:27.985Z,24.94
2023-04-25T16:07:57.262Z,24.33
2023-04-25T16:10:25.371Z,23.72
2023-04-25T16:12:53.788Z,23.32
2023-04-25T16:15:21.731Z,22.86
2023-04-25T16:17:49.686Z,22.33
2023-04-25T16:20:17.933Z,21.95
2023-04-25T16:22:46.008Z,21.60
2023-04-25T16:25:15.312Z,21.35
2023-04-25T16:27:43.200Z,21.15
2023-04-25T16:30:11.964Z,20.94
2023-04-25T16:32:42.161Z,20.73
2023-04-25T16:35:12.319Z,20.52
2023-04-25T16:37:40.233Z,20.51
2023-04-25T16:40:09.997Z,20.53
2023-04-25T16:42:39.452Z,20.50
2023-04-25T16:45:08.072Z,20.48
2023-04-25T16:47:36.498Z,20.53
2023-04-25T16:50:05.065Z,21.02
2023-04-25T16:52:33.007Z,21.80
2023-04-25T16:55:01.532Z,22.20
2023-04-25T16:57:29.453Z,22.63
2023-04-25T16:59:58.691Z,23.38
2023-04-25T17:02:27.231Z,24.26
2023-04-25T17:04:55.285Z,25.04
2023-04-25T17:07:24.624Z,25.58
2023-04-25T17:09:52.695Z,25.69
2023-04-25T17:12:20.763Z,25.60
2023-04-25T17:14:48.676Z,25.46
2023-04-25T17:17:18.892Z,25.28
2023-04-25T17:19:47.265Z,25.14
2023-04-25T17:22:15.700Z,24.63
2023-04-25T17:24:43.896Z,23.69
2023-04-25T17:27:11.969Z,22.83
2023-04-25T17:29:39.814Z,22.07
2023-04-25T17:32:07.635Z,21.41
2023-04-25T17:34:37.549Z,20.82
2023-04-25T17:37:07.053Z,20.38
2023-04-25T17:39:35.001Z,20.03
2023-04-25T17:42:02.957Z,19.77
2023-04-25T17:44:30.979Z,19.47
2023-04-25T17:46:59.042Z,19.29
2023-04-25T17:49:27.026Z,19.11
2023-04-25T17:51:56.286Z,18.98
2023-04-25T17:54:24.688Z,18.85
2023-04-25T17:56:53.002Z,18.64
2023-04-25T17:59:20.893Z,18.48
2023-04-25T18:01:48.949Z,18.32
2023-04-25T18:04:17.555Z,18.14
2023-04-25T18:06:45.466Z,18.00
2023-04-25T18:09:18.226Z,17.87
2023-04-25T18:11:46.445Z,17.73
2023-04-25T18:14:15.455Z,17.60
2023-04-25T18:16:43.796Z,17.56
2023-04-25T18:19:15.601Z,17.51
2023-04-25T18:21:43.612Z,17.47
2023-04-25T18:24:13.686Z,17.36
2023-04-25T18:26:42.989Z,17.24
2023-04-25T18:29:16.318Z,17.18
2023-04-25T18:31:50.348Z,17.11
2023-04-25T18:34:20.491Z,17.03
2023-04-25T18:36:48.612Z,16.88
2023-04-25T18:39:22.563Z,16.80
2023-04-25T18:41:59.703Z,16.70
2023-04-25T18:44:32.310Z,16.64
2023-04-25T18:47:00.290Z,16.55
2023-04-25T18:49:28.304Z,16.46
2023-04-25T18:51:57.513Z,16.39
2023-04-25T18:54:25.447Z,16.26
2023-04-25T18:56:57.432Z,16.15
2023-04-25T18:59:26.272Z,16.00
2023-04-25T19:01:54.591Z,15.91
2023-04-25T19:04:22.739Z,15.80
2023-04-25T19:06:51.468Z,15.72
2023-04-25T19:09:19.433Z,15.65
2023-04-25T19:11:47.413Z,15.54
2023-04-25T19:14:16.750Z,15.48
2023-04-25T19:16:44.686Z,15.40
2023-04-25T19:19:12.684Z,15.32
2023-04-25T19:21:41.643Z,15.25
2023-04-25T19:24:09.889Z,15.16
2023-04-25T19:26:38.190Z,15.07
2023-04-25T19:29:08.088Z,14.99
2023-04-25T19:31:38.635Z,14.90
2023-04-25T19:34:06.982Z,14.94
2023-04-25T19:36:35.050Z,14.92
2023-04-25T19:39:04.413Z,14.89
2023-04-25T19:41:33.440Z,14.84
2023-04-25T19:44:01.839Z,14.82
2023-04-25T19:46:29.755Z,14.78
2023-04-25T19:48:59.073Z,14.76
2023-04-25T19:51:27.882Z,14.77
2023-04-25T19:53:55.891Z,14.77
2023-04-25T19:56:24.392Z,14.76
2023-04-25T19:58:52.609Z,14.76
2023-04-25T20:01:22.365Z,14.75
2023-04-25T20:03:51.792Z,14.75
2023-04-25T20:06:21.758Z,14.71
2023-04-25T20:08:51.164Z,14.68
2023-04-25T20:11:19.025Z,14.64
2023-04-25T20:13:47.160Z,14.62
2023-04-25T20:16:19.717Z,14.55
2023-04-25T20:18:48.333Z,14.47
2023-04-25T20:21:16.928Z,14.41
2023-04-25T20:23:46.228Z,14.37
2023-04-25T20:26:14.161Z,14.33
2023-04-25T20:28:42.838Z,14.31
2023-04-25T20:31:10.978Z,14.28
2023-04-25T20:33:39.318Z,14.17
2023-04-25T20:36:07.784Z,14.13
2023-04-25T20:38:35.744Z,14.06
2023-04-25T20:41:04.999Z,14.02
2023-04-25T20:43:33.457Z,13.96
2023-04-25T20:46:01.845Z,13.90
2023-04-25T20:48:29.782Z,13.83
2023-04-25T20:50:58.594Z,13.79
2023-04-25T20:53:28.544Z,13.75
2023-04-25T20:55:56.430Z,13.76
2023-04-25T20:58:26.426Z,13.71
2023-04-25T21:00:54.898Z,13.70
2023-04-25T21:03:22.977Z,13.73
2023-04-25T21:05:51.585Z,13.72
2023-04-25T21:08:19.511Z,13.71
2023-04-25T21:10:47.436Z,13.69
2023-04-25T21:13:15.393Z,13.68
2023-04-25T21:15:44.688Z,13.64
2023-04-25T21:18:12.917Z,13.64
2023-04-25T21:20:41.229Z,13.63
2023-04-25T21:23:09.127Z,13.63
2023-04-25T21:25:37.024Z,13.62
2023-04-25T21:28:04.928Z,13.63
2023-04-25T21:30:32.829Z,13.60
2023-04-25T21:33:02.251Z,13.59
2023-04-25T21:35:30.230Z,13.58
2023-04-25T21:37:58.449Z,13.55
2023-04-25T21:40:26.491Z,13.51
2023-04-25T21:42:54.389Z,13.51
2023-04-25T21:45:22.306Z,13.51
2023-04-25T21:47:50.798Z,13.50
2023-04-25T21:50:20.628Z,13.51
2023-04-25T21:52:49.251Z,13.50
2023-04-25T21:55:17.619Z,13.50
2023-04-25T21:57:46.365Z,13.49
2023-04-25T22:00:24.497Z,13.48
2023-04-25T22:02:53.226Z,13.48
2023-04-25T22:05:22.775Z,13.46
2023-04-25T22:07:51.023Z,13.43
2023-04-25T22:10:19.655Z,13.40
2023-04-25T22:12:50.768Z,13.39
2023-04-25T22:15:19.410Z,13.38
2023-04-25T22:17:47.462Z,13.37
2023-04-25T22:20:15.738Z,13.36
2023-04-25T22:22:45.147Z,13.36
2023-04-25T22:25:13.026Z,13.36
2023-04-25T22:27:42.901Z,13.33
2023-04-25T22:30:12.994Z,13.32
2023-04-25T22:32:41.560Z,13.33
2023-04-25T22:35:10.501Z,13.35
2023-04-25T22:37:38.595Z,13.35
2023-04-25T22:40:09.281Z,13.34
2023-04-25T22:42:40.842Z,13.40
2023-04-25T22:45:09.672Z,13.39
2023-04-25T22:47:37.809Z,13.39
2023-04-25T22:50:08.654Z,13.40
2023-04-25T22:52:36.551Z,13.41
2023-04-25T22:55:04.878Z,13.43
2023-04-25T22:57:34.232Z,13.39
2023-04-25T23:00:02.141Z,13.40
2023-04-25T23:02:30.241Z,13.38
2023-04-25T23:05:00.238Z,13.37
2023-04-25T23:07:29.225Z,13.38
2023-04-25T23:09:57.197Z,13.39
2023-04-25T23:12:25.038Z,13.41
2023-04-25T23:14:56.108Z,13.40
2023-04-25T23:17:24.012Z,13.38
2023-04-25T23:19:51.882Z,13.37
2023-04-25T23:22:19.728Z,13.39
2023-04-25T23:24:47.590Z,13.35
2023-04-25T23:27:15.434Z,13.41
2023-04-25T23:29:43.308Z,13.41
2023-04-25T23:32:12.719Z,13.44
2023-04-25T23:34:40.732Z,13.41
2023-04-25T23:37:08.613Z,13.42
2023-04-25T23:39:36.900Z,13.42
2023-04-25T23:42:04.912Z,13.43
2023-04-25T23:44:32.851Z,13.43
2023-04-25T23:47:01.182Z,13.42
2023-04-25T23:49:30.431Z,13.41
2023-04-25T23:51:58.289Z,13.43
2023-04-25T23:54:26.752Z,13.41
2023-04-25T23:56:54.710Z,13.41
2023-04-25T23:59:22.728Z,13.36
